createdAt,value
2023-05-24T00:01:02.956Z,18.93
2023-05-24T00:03:31.236Z,18.91
2023-05-24T00:06:02.883Z,18.95
2023-05-24T00:08:30.359Z,19.02
2023-05-24T00:10:58.799Z,18.91
2023-05-24T00:13:28.737Z,18.72
2023-05-24T00:15:56.752Z,18.68
2023-05-24T00:18:24.642Z,18.73
2023-05-24T00:20:56.165Z,18.81
2023-05-24T00:23:24.784Z,18.73
2023-05-24T00:25:53.069Z,18.67
2023-05-24T00:28:33.818Z,18.65
2023-05-24T00:31:02.199Z,18.63
2023-05-24T00:33:31.865Z,18.55
2023-05-24T00:36:02.813Z,18.54
2023-05-24T00:38:30.269Z,18.45
2023-05-24T00:41:01.672Z,18.53
2023-05-24T00:43:30.947Z,18.43
2023-05-24T00:46:18.885Z,18.43
2023-05-24T00:48:46.851Z,18.40
2023-05-24T00:51:15.858Z,18.32
2023-05-24T00:53:46.653Z,18.30
2023-05-24T00:56:15.464Z,18.20
2023-05-24T00:58:43.293Z,18.22
2023-05-24T01:01:13.352Z,18.15
2023-05-24T01:03:42.035Z,18.00
2023-05-24T01:06:16.212Z,17.95
2023-05-24T01:08:47.798Z,17.79
2023-05-24T01:11:20.500Z,17.67
2023-05-24T01:14:10.289Z,17.70
2023-05-24T01:16:57.654Z,17.71
2023-05-24T01:19:37.302Z,17.62
2023-05-24T01:22:39.935Z,17.56
2023-05-24T01:25:26.229Z,17.57
2023-05-24T01:27:56.338Z,17.54
2023-05-24T01:30:27.650Z,17.62
2023-05-24T01:32:57.516Z,17.51
2023-05-24T01:35:24.953Z,17.50
2023-05-24T01:37:52.548Z,17.43
2023-05-24T01:40:20.126Z,17.38
2023-05-24T01:43:03.552Z,17.32
2023-05-24T01:45:45.324Z,17.30
2023-05-24T01:48:31.948Z,17.34
2023-05-24T01:51:01.035Z,17.31
2023-05-24T01:53:39.816Z,17.23
2023-05-24T01:56:08.102Z,17.14
2023-05-24T01:58:37.799Z,17.19
2023-05-24T02:01:05.829Z,17.10
2023-05-24T02:03:34.086Z,17.08
2023-05-24T02:06:03.317Z,17.01
2023-05-24T02:08:31.104Z,17.05
2023-05-24T02:10:59.259Z,17.05
2023-05-24T02:13:28.354Z,17.07
2023-05-24T02:15:56.482Z,17.00
2023-05-24T02:18:27.210Z,16.86
2023-05-24T02:20:54.793Z,16.65
2023-05-24T02:23:23.530Z,16.58
2023-05-24T02:25:50.974Z,16.45
2023-05-24T02:28:20.539Z,16.52
2023-05-24T02:30:48.091Z,16.49
2023-05-24T02:33:15.925Z,16.53
2023-05-24T02:35:44.188Z,16.44
2023-05-24T02:38:12.923Z,16.48
2023-05-24T02:40:40.308Z,16.44
2023-05-24T02:43:09.774Z,16.44
2023-05-24T02:45:37.896Z,16.33
2023-05-24T02:48:06.120Z,16.38
2023-05-24T02:50:33.864Z,16.26
2023-05-24T02:53:01.728Z,16.32
2023-05-24T02:55:29.781Z,16.30
2023-05-24T02:57:57.712Z,16.25
2023-05-24T03:00:28.272Z,16.33
2023-05-24T03:02:57.834Z,16.37
2023-05-24T03:05:25.238Z,16.28
2023-05-24T03:07:53.068Z,16.28
2023-05-24T03:10:20.602Z,16.24
2023-05-24T03:12:48.778Z,16.23
2023-05-24T03:15:16.376Z,16.30
2023-05-24T03:17:44.099Z,16.31
2023-05-24T03:20:12.388Z,16.38
2023-05-24T03:22:40.264Z,16.31
2023-05-24T03:25:08.895Z,16.40
2023-05-24T03:27:36.924Z,16.40
2023-05-24T03:30:06.762Z,16.48
2023-05-24T03:32:41.281Z,16.40
2023-05-24T03:35:12.219Z,16.38
2023-05-24T03:37:39.942Z,16.43
2023-05-24T03:40:09.992Z,16.48
2023-05-24T03:43:07.002Z,16.42
2023-05-24T03:45:48.426Z,16.49
2023-05-24T03:48:16.247Z,16.47
2023-05-24T03:50:45.001Z,16.48
2023-05-24T03:53:13.089Z,16.56
2023-05-24T03:55:40.509Z,16.59
2023-05-24T03:58:09.569Z,16.72
2023-05-24T04:00:37.817Z,16.78
2023-05-24T04:03:09.389Z,16.73
2023-05-24T04:05:38.185Z,16.67
2023-05-24T04:08:07.294Z,16.66
2023-05-24T04:10:37.772Z,16.91
2023-05-24T04:13:06.754Z,17.09
2023-05-24T04:15:38.147Z,17.17
2023-05-24T04:18:06.630Z,17.24
2023-05-24T04:20:35.717Z,17.37
2023-05-24T04:23:03.671Z,17.50
2023-05-24T04:25:34.244Z,17.64
2023-05-24T04:28:04.059Z,17.67
2023-05-24T04:30:33.527Z,17.73
2023-05-24T04:33:01.206Z,17.76
2023-05-24T04:35:31.184Z,17.75
2023-05-24T04:38:00.035Z,17.87
2023-05-24T04:40:27.862Z,17.87
2023-05-24T04:42:56.187Z,18.00
2023-05-24T04:45:23.768Z,18.02
2023-05-24T04:47:51.992Z,18.15
2023-05-24T04:50:21.669Z,18.16
2023-05-24T04:52:50.183Z,18.21
2023-05-24T04:55:17.623Z,18.44
2023-05-24T04:57:45.385Z,18.62
2023-05-24T05:00:16.084Z,18.80
2023-05-24T05:02:44.436Z,19.03
2023-05-24T05:05:15.153Z,19.19
2023-05-24T05:07:44.009Z,19.45
2023-05-24T05:10:11.973Z,19.74
2023-05-24T05:12:39.862Z,20.01
2023-05-24T05:15:09.170Z,20.31
2023-05-24T05:17:40.226Z,20.57
2023-05-24T05:20:10.780Z,20.79
2023-05-24T05:22:38.896Z,21.03
2023-05-24T05:25:06.713Z,21.46
2023-05-24T05:27:34.393Z,21.67
2023-05-24T05:30:01.696Z,21.68
2023-05-24T05:32:29.614Z,21.91
2023-05-24T05:34:57.508Z,21.94
2023-05-24T05:37:28.582Z,22.33
2023-05-24T05:39:56.592Z,22.44
2023-05-24T05:42:25.426Z,22.79
2023-05-24T05:44:54.212Z,22.74
2023-05-24T05:47:22.036Z,22.45
2023-05-24T05:49:49.596Z,22.44
2023-05-24T05:52:18.641Z,22.41
2023-05-24T05:54:47.441Z,22.72
2023-05-24T05:57:16.481Z,22.68
2023-05-24T05:59:43.851Z,23.28
2023-05-24T06:02:13.025Z,23.49
2023-05-24T06:04:41.836Z,23.73
2023-05-24T06:07:09.507Z,23.76
2023-05-24T06:09:37.363Z,23.93
2023-05-24T06:12:06.116Z,23.89
2023-05-24T06:14:34.684Z,23.96
2023-05-24T06:17:02.354Z,24.15
2023-05-24T06:19:29.608Z,24.06
2023-05-24T06:21:57.744Z,24.14
2023-05-24T06:24:25.284Z,23.50
2023-05-24T06:26:53.157Z,23.72
2023-05-24T06:29:22.101Z,24.30
2023-05-24T06:31:50.729Z,23.46
2023-05-24T06:34:23.101Z,23.12
2023-05-24T06:36:51.824Z,23.50
2023-05-24T06:39:19.611Z,24.05
2023-05-24T06:41:47.751Z,24.29
2023-05-24T06:44:16.598Z,24.61
2023-05-24T06:46:44.977Z,24.09
2023-05-24T06:49:12.735Z,24.44
2023-05-24T06:51:40.728Z,24.28
2023-05-24T06:54:08.134Z,24.38
2023-05-24T06:56:35.837Z,24.94
2023-05-24T06:59:03.138Z,24.70
2023-05-24T07:01:31.232Z,24.59
2023-05-24T07:03:59.354Z,24.31
2023-05-24T07:06:27.186Z,24.11
2023-05-24T07:08:54.448Z,24.25
2023-05-24T07:11:22.142Z,24.19
2023-05-24T07:13:49.339Z,24.03
2023-05-24T07:16:17.122Z,24.23
2023-05-24T07:18:45.658Z,23.45
2023-05-24T07:21:13.837Z,23.21
2023-05-24T07:23:41.377Z,23.23
2023-05-24T07:26:12.923Z,22.41
2023-05-24T07:28:40.577Z,22.34
2023-05-24T07:31:10.128Z,22.50
2023-05-24T07:33:38.322Z,22.33
2023-05-24T07:36:07.345Z,22.69
2023-05-24T07:38:36.218Z,22.47
2023-05-24T07:41:04.944Z,22.58
2023-05-24T07:43:33.538Z,22.10
2023-05-24T07:46:01.445Z,21.98
2023-05-24T07:48:28.867Z,22.16
2023-05-24T07:50:57.232Z,22.08
2023-05-24T07:53:28.965Z,21.28
2023-05-24T07:55:56.878Z,21.39
2023-05-24T07:58:25.806Z,21.35
2023-05-24T08:00:54.170Z,21.14
2023-05-24T08:03:21.746Z,20.92
2023-05-24T08:05:49.659Z,20.77
2023-05-24T08:08:17.337Z,20.53
2023-05-24T08:10:45.649Z,20.45
2023-05-24T08:13:14.758Z,20.69
2023-05-24T08:15:43.160Z,20.68
2023-05-24T08:18:10.757Z,20.71
2023-05-24T08:20:39.472Z,20.48
2023-05-24T08:23:07.000Z,20.39
2023-05-24T08:25:34.586Z,20.79
2023-05-24T08:28:02.537Z,21.02
2023-05-24T08:30:31.891Z,21.30
2023-05-24T08:33:02.208Z,21.64
2023-05-24T08:35:29.915Z,21.97
2023-05-24T08:37:57.206Z,22.39
2023-05-24T08:40:25.963Z,22.31
2023-05-24T08:42:56.656Z,22.28
2023-05-24T08:45:26.498Z,22.63
2023-05-24T08:47:55.896Z,22.64
2023-05-24T08:50:24.789Z,22.80
2023-05-24T08:52:53.272Z,22.43
2023-05-24T08:55:22.072Z,22.74
2023-05-24T08:57:50.256Z,23.72
2023-05-24T09:00:20.150Z,23.44
2023-05-24T09:02:47.972Z,23.74
2023-05-24T09:05:21.982Z,24.20
2023-05-24T09:07:53.301Z,24.46
2023-05-24T09:10:24.130Z,24.73
2023-05-24T09:12:56.620Z,24.99
2023-05-24T09:15:24.412Z,25.19
2023-05-24T09:17:51.741Z,25.63
2023-05-24T09:20:21.665Z,25.77
2023-05-24T09:22:53.322Z,25.93
2023-05-24T09:25:21.757Z,25.82
2023-05-24T09:27:53.813Z,25.88
2023-05-24T09:30:21.939Z,24.73
2023-05-24T09:33:00.005Z,24.74
2023-05-24T09:35:28.637Z,25.17
2023-05-24T09:38:02.664Z,25.41
2023-05-24T09:40:31.010Z,25.86
2023-05-24T09:43:11.268Z,26.70
2023-05-24T09:45:47.218Z,26.89
2023-05-24T09:48:17.500Z,27.09
2023-05-24T09:50:47.920Z,27.87
2023-05-24T09:53:19.239Z,28.14
2023-05-24T09:55:47.160Z,28.75
2023-05-24T09:58:15.956Z,28.95
2023-05-24T10:00:44.063Z,28.01
2023-05-24T10:03:13.294Z,27.17
2023-05-24T10:05:44.824Z,26.28
2023-05-24T10:08:15.443Z,26.97
2023-05-24T10:10:44.331Z,26.97
2023-05-24T10:13:12.861Z,26.83
2023-05-24T10:15:40.425Z,26.62
2023-05-24T10:18:11.516Z,26.71
2023-05-24T10:20:42.649Z,27.62
2023-05-24T10:23:14.493Z,27.72
2023-05-24T10:25:52.183Z,27.32
2023-05-24T10:28:22.725Z,26.88
2023-05-24T10:31:02.975Z,27.08
2023-05-24T10:33:32.736Z,27.67
2023-05-24T10:36:01.261Z,27.96
2023-05-24T10:38:31.618Z,28.45
2023-05-24T10:41:00.140Z,28.98
2023-05-24T10:43:27.842Z,28.75
2023-05-24T10:45:56.755Z,28.87
2023-05-24T10:48:24.116Z,29.19
2023-05-24T10:50:52.235Z,29.53
2023-05-24T10:53:22.818Z,29.98
2023-05-24T10:56:02.090Z,30.79
2023-05-24T10:59:01.106Z,29.13
2023-05-24T11:02:15.333Z,28.79
2023-05-24T11:04:46.668Z,28.74
2023-05-24T11:07:15.900Z,28.59
2023-05-24T11:09:53.164Z,28.44
2023-05-24T11:12:21.924Z,28.14
2023-05-24T11:14:52.604Z,27.44
2023-05-24T11:17:24.190Z,26.76
2023-05-24T11:19:53.665Z,26.12
2023-05-24T11:22:25.671Z,25.87
2023-05-24T11:24:54.423Z,25.76
2023-05-24T11:27:23.217Z,25.52
2023-05-24T11:29:50.633Z,25.44
2023-05-24T11:32:22.052Z,25.72
2023-05-24T11:34:49.972Z,25.65
2023-05-24T11:37:18.828Z,25.65
2023-05-24T11:39:54.330Z,25.79
2023-05-24T11:42:25.213Z,24.96
2023-05-24T11:44:53.956Z,25.12
2023-05-24T11:47:25.148Z,25.20
2023-05-24T11:49:52.798Z,25.42
2023-05-24T11:52:20.703Z,24.49
2023-05-24T11:54:49.414Z,24.11
2023-05-24T11:57:24.034Z,24.36
2023-05-24T11:59:51.717Z,24.16
2023-05-24T12:02:19.772Z,24.01
2023-05-24T12:04:47.595Z,23.92
2023-05-24T12:07:18.278Z,24.39
2023-05-24T12:09:45.737Z,24.68
2023-05-24T12:12:13.645Z,24.85
2023-05-24T12:14:40.960Z,25.20
2023-05-24T12:17:16.499Z,25.75
2023-05-24T12:19:43.942Z,25.63
2023-05-24T12:22:11.715Z,25.92
2023-05-24T12:24:39.330Z,24.98
2023-05-24T12:27:08.245Z,25.64
2023-05-24T12:29:38.875Z,25.73
2023-05-24T12:32:13.082Z,25.76
2023-05-24T12:34:42.623Z,25.73
2023-05-24T12:37:12.941Z,25.98
2023-05-24T12:39:43.541Z,26.13
2023-05-24T12:42:15.495Z,26.81
2023-05-24T12:44:45.227Z,27.60
2023-05-24T12:47:13.369Z,26.53
2023-05-24T12:49:40.996Z,27.56
2023-05-24T12:52:09.423Z,28.49
2023-05-24T12:54:38.450Z,28.55
2023-05-24T12:57:06.534Z,28.00
2023-05-24T12:59:34.067Z,28.62
2023-05-24T13:02:02.222Z,29.19
2023-05-24T13:04:31.880Z,29.88
2023-05-24T13:06:59.332Z,29.31
2023-05-24T13:09:27.113Z,28.75
2023-05-24T13:11:55.514Z,29.01
2023-05-24T13:14:27.806Z,28.91
2023-05-24T13:16:55.299Z,29.08
2023-05-24T13:19:23.083Z,29.09
2023-05-24T13:21:50.353Z,28.85
2023-05-24T13:24:18.327Z,28.66
2023-05-24T13:26:46.229Z,28.79
2023-05-24T13:31:44.985Z,28.11
2023-05-24T13:34:13.935Z,27.77
2023-05-24T13:36:42.718Z,27.53
2023-05-24T13:41:42.463Z,27.87
2023-05-24T13:44:10.729Z,28.57
2023-05-24T13:46:39.257Z,28.31
2023-05-24T13:49:07.889Z,28.20
2023-05-24T13:51:36.358Z,28.30
2023-05-24T13:54:06.152Z,27.79
2023-05-24T13:56:34.420Z,28.27
2023-05-24T13:59:03.841Z,28.47
2023-05-24T14:01:32.701Z,28.73
2023-05-24T14:04:01.842Z,28.77
2023-05-24T14:06:29.619Z,28.81
2023-05-24T14:08:57.244Z,28.61
2023-05-24T14:11:25.676Z,28.29
2023-05-24T14:16:25.336Z,27.61
2023-05-24T14:18:52.657Z,28.12
2023-05-24T14:21:23.938Z,28.15
2023-05-24T14:23:53.598Z,28.08
2023-05-24T14:26:23.978Z,27.31
2023-05-24T14:28:54.417Z,27.40
2023-05-24T14:31:24.353Z,27.40
2023-05-24T14:33:51.681Z,27.63
2023-05-24T14:36:19.422Z,27.16
2023-05-24T14:38:46.878Z,26.74
2023-05-24T14:41:15.594Z,27.27
2023-05-24T14:43:43.294Z,27.53
2023-05-24T14:46:16.255Z,27.38
2023-05-24T14:48:45.055Z,27.78
2023-05-24T14:51:12.784Z,27.73
2023-05-24T14:53:40.194Z,27.86
2023-05-24T14:56:20.234Z,27.81
2023-05-24T14:58:49.781Z,27.80
2023-05-24T15:01:20.445Z,27.96
2023-05-24T15:03:48.166Z,27.72
2023-05-24T15:06:15.977Z,27.53
2023-05-24T15:08:43.437Z,26.70
2023-05-24T15:11:11.577Z,27.17
2023-05-24T15:13:38.834Z,26.70
2023-05-24T15:16:06.528Z,26.55
2023-05-24T15:18:34.286Z,26.79
2023-05-24T15:21:02.189Z,26.01
2023-05-24T15:23:29.675Z,26.00
2023-05-24T15:25:57.339Z,26.07
2023-05-24T15:28:26.458Z,25.98
2023-05-24T15:30:54.748Z,26.26
2023-05-24T15:33:22.202Z,26.47
2023-05-24T15:35:49.858Z,26.64
2023-05-24T15:38:18.615Z,26.82
2023-05-24T15:40:47.212Z,26.32
2023-05-24T15:43:18.201Z,26.09
2023-05-24T15:45:46.759Z,26.02
2023-05-24T15:48:14.856Z,26.23
2023-05-24T15:53:12.815Z,26.39
2023-05-24T15:55:40.602Z,26.02
2023-05-24T15:58:08.002Z,25.84
2023-05-24T16:00:37.295Z,25.67
2023-05-24T16:03:05.023Z,25.57
2023-05-24T16:05:32.979Z,25.61
2023-05-24T16:08:00.725Z,25.60
2023-05-24T16:10:28.463Z,25.77
2023-05-24T16:12:56.206Z,25.74
2023-05-24T16:15:23.879Z,25.78
2023-05-24T16:17:52.867Z,25.36
2023-05-24T16:20:20.630Z,25.11
2023-05-24T16:22:51.567Z,25.24
2023-05-24T16:25:19.377Z,25.31
2023-05-24T16:27:46.731Z,25.07
2023-05-24T16:30:14.978Z,24.86
2023-05-24T16:32:45.461Z,24.75
2023-05-24T16:35:13.178Z,24.67
2023-05-24T16:37:41.650Z,24.68
2023-05-24T16:40:10.248Z,24.68
2023-05-24T16:42:38.326Z,24.48
2023-05-24T16:45:06.731Z,24.43
2023-05-24T16:47:34.404Z,24.41
2023-05-24T16:50:02.554Z,24.27
2023-05-24T16:52:32.683Z,24.14
2023-05-24T16:55:00.523Z,24.18
2023-05-24T16:57:27.916Z,24.18
2023-05-24T16:59:55.661Z,24.05
2023-05-24T17:02:23.049Z,23.95
2023-05-24T17:04:51.283Z,23.95
2023-05-24T17:07:18.782Z,23.99
2023-05-24T17:09:53.300Z,23.82
2023-05-24T17:12:22.965Z,23.98
2023-05-24T17:14:50.639Z,23.84
2023-05-24T17:17:18.495Z,23.73
2023-05-24T17:19:46.375Z,23.70
2023-05-24T17:22:13.710Z,23.72
2023-05-24T17:24:41.574Z,23.74
2023-05-24T17:27:08.985Z,23.75
2023-05-24T17:29:37.346Z,23.70
2023-05-24T17:32:05.392Z,23.63
2023-05-24T17:34:33.155Z,23.56
2023-05-24T17:37:00.733Z,23.51
2023-05-24T17:39:28.291Z,23.45
2023-05-24T17:41:55.724Z,23.35
2023-05-24T17:44:23.481Z,23.32
2023-05-24T17:46:51.758Z,23.32
2023-05-24T17:49:19.701Z,23.19
2023-05-24T17:51:47.025Z,23.20
2023-05-24T17:54:14.861Z,23.13
2023-05-24T17:56:43.045Z,23.19
2023-05-24T17:59:10.805Z,23.05
2023-05-24T18:01:38.246Z,23.01
2023-05-24T18:04:08.348Z,23.07
2023-05-24T18:06:37.614Z,22.71
2023-05-24T18:09:05.301Z,22.92
2023-05-24T18:11:32.714Z,22.95
2023-05-24T18:14:00.743Z,22.84
2023-05-24T18:16:28.285Z,22.77
2023-05-24T18:18:56.276Z,22.72
2023-05-24T18:21:23.910Z,22.71
2023-05-24T18:23:51.711Z,22.64
2023-05-24T18:26:19.067Z,22.47
2023-05-24T18:28:46.712Z,22.53
2023-05-24T18:31:15.091Z,22.40
2023-05-24T18:33:42.889Z,22.46
2023-05-24T18:36:12.780Z,22.36
2023-05-24T18:38:41.571Z,22.33
2023-05-24T18:41:12.578Z,22.28
2023-05-24T18:43:43.412Z,22.20
2023-05-24T18:46:15.407Z,22.19
2023-05-24T18:48:43.571Z,22.10
2023-05-24T18:51:12.887Z,22.10
2023-05-24T18:53:48.187Z,21.88
2023-05-24T18:56:16.127Z,21.89
2023-05-24T18:58:46.225Z,21.84
2023-05-24T19:01:13.780Z,21.89
2023-05-24T19:03:42.024Z,21.83
2023-05-24T19:06:09.510Z,21.78
2023-05-24T19:08:37.151Z,21.69
2023-05-24T19:11:05.126Z,21.69
2023-05-24T19:13:33.068Z,21.67
2023-05-24T19:16:01.653Z,21.66
2023-05-24T19:18:29.347Z,21.64
2023-05-24T19:20:56.873Z,21.64
2023-05-24T19:23:24.763Z,21.60
2023-05-24T19:25:52.130Z,21.59
2023-05-24T19:28:19.860Z,21.59
2023-05-24T19:31:04.154Z,21.60
2023-05-24T19:33:42.616Z,21.65
2023-05-24T19:36:17.307Z,21.67
2023-05-24T19:38:46.824Z,21.55
2023-05-24T19:41:15.048Z,21.53
2023-05-24T19:44:03.999Z,21.50
2023-05-24T19:46:32.330Z,21.52
2023-05-24T19:49:06.449Z,21.48
2023-05-24T19:51:47.284Z,21.40
2023-05-24T19:54:19.231Z,21.31
2023-05-24T19:56:51.281Z,21.30
2023-05-24T19:59:20.133Z,21.43
2023-05-24T20:01:50.379Z,21.35
2023-05-24T20:04:26.095Z,21.41
2023-05-24T20:07:00.186Z,21.26
2023-05-24T20:09:32.187Z,21.19
2023-05-24T20:12:06.600Z,21.14
2023-05-24T20:14:38.224Z,21.12
2023-05-24T20:17:05.769Z,21.15
2023-05-24T20:19:33.527Z,21.16
2023-05-24T20:22:03.820Z,21.19
2023-05-24T20:24:38.838Z,21.16
2023-05-24T20:27:07.636Z,21.13
2023-05-24T20:29:36.137Z,21.14
2023-05-24T20:32:03.655Z,20.86
2023-05-24T20:34:37.021Z,20.82
2023-05-24T20:37:05.537Z,20.74
2023-05-24T20:39:33.552Z,20.79
2023-05-24T20:42:02.435Z,20.79
2023-05-24T20:44:31.382Z,20.85
2023-05-24T20:46:59.609Z,20.89
2023-05-24T20:49:27.687Z,20.97
2023-05-24T20:51:55.056Z,20.95
2023-05-24T20:54:24.169Z,20.94
2023-05-24T20:56:58.096Z,20.80
2023-05-24T20:59:27.876Z,20.66
2023-05-24T21:01:59.158Z,20.51
2023-05-24T21:04:28.433Z,20.47
2023-05-24T21:06:57.771Z,20.42
2023-05-24T21:09:27.141Z,20.49
2023-05-24T21:11:54.630Z,20.64
2023-05-24T21:14:25.439Z,20.71
2023-05-24T21:16:53.273Z,20.66
2023-05-24T21:19:23.243Z,20.58
2023-05-24T21:21:50.590Z,20.58
2023-05-24T21:24:19.860Z,20.53
2023-05-24T21:26:47.372Z,20.47
2023-05-24T21:29:15.095Z,20.38
2023-05-24T21:31:42.577Z,20.23
2023-05-24T21:34:13.587Z,20.28
2023-05-24T21:36:40.972Z,20.22
2023-05-24T21:39:08.702Z,20.16
2023-05-24T21:41:40.051Z,20.23
2023-05-24T21:44:08.380Z,20.18
2023-05-24T21:46:36.591Z,20.16
2023-05-24T21:49:04.402Z,19.99
2023-05-24T21:51:34.160Z,19.92
2023-05-24T21:54:02.077Z,19.81
2023-05-24T21:56:29.834Z,19.84
2023-05-24T21:58:57.393Z,19.90
2023-05-24T22:01:24.974Z,19.85
2023-05-24T22:03:52.814Z,19.68
2023-05-24T22:06:20.517Z,19.63
2023-05-24T22:08:48.447Z,19.50
2023-05-24T22:11:16.642Z,19.50
2023-05-24T22:13:44.272Z,19.50
2023-05-24T22:16:11.685Z,19.46
2023-05-24T22:18:39.654Z,19.45
2023-05-24T22:21:07.237Z,19.35
2023-05-24T22:23:35.107Z,19.37
2023-05-24T22:26:02.608Z,19.12
2023-05-24T22:28:47.961Z,18.94
2023-05-24T22:31:15.875Z,18.91
2023-05-24T22:33:44.177Z,18.88
2023-05-24T22:36:14.134Z,18.96
2023-05-24T22:38:42.728Z,18.97
2023-05-24T22:41:10.248Z,18.94
2023-05-24T22:43:38.253Z,18.87
2023-05-24T22:46:06.662Z,18.93
2023-05-24T22:48:36.170Z,18.93
2023-05-24T22:51:03.688Z,18.98
2023-05-24T22:53:32.312Z,19.04
2023-05-24T22:55:59.670Z,19.07
2023-05-24T22:58:28.323Z,19.11
2023-05-24T23:00:56.068Z,19.11
2023-05-24T23:03:24.041Z,19.12
2023-05-24T23:05:53.718Z,19.24
2023-05-24T23:08:21.833Z,19.35
2023-05-24T23:10:49.283Z,19.32
2023-05-24T23:13:19.170Z,19.34
2023-05-24T23:15:47.138Z,19.34
2023-05-24T23:18:17.365Z,19.33
2023-05-24T23:20:45.520Z,19.30
2023-05-24T23:23:13.718Z,19.37
2023-05-24T23:25:41.078Z,19.30
2023-05-24T23:28:09.631Z,19.35
2023-05-24T23:30:36.916Z,19.22
2023-05-24T23:33:04.660Z,19.30
2023-05-24T23:35:32.099Z,19.21
2023-05-24T23:38:01.227Z,19.34
2023-05-24T23:40:30.253Z,19.34
2023-05-24T23:42:58.065Z,19.31
2023-05-24T23:45:25.330Z,19.12
2023-05-24T23:47:55.089Z,19.13
2023-05-24T23:50:22.825Z,19.09
2023-05-24T23:52:50.627Z,19.07
2023-05-24T23:55:18.574Z,19.05
2023-05-24T23:57:47.781Z,19.04
